sensor_id;sensor_type;location;lat;lon;timestamp;pressure;altitude;pressure_sealevel;temperature;humidity
64683;BME280;51107;47.652;19.016;2023-05-19T00:02:03;100538.47;;;12.60;100.00
64683;BME280;51107;47.652;19.016;2023-05-19T00:04:33;100531.75;;;12.57;100.00
64683;BME280;51107;47.652;19.016;2023-05-19T00:07:02;100529.13;;;12.57;100.00
64683;BME280;51107;47.652;19.016;2023-05-19T00:09:31;100528.63;;;12.54;100.00
64683;BME280;51107;47.652;19.016;2023-05-19T00:11:59;100525.16;;;12.53;100.00
64683;BME280;51107;47.652;19.016;2023-05-19T00:14:28;100526.97;;;12.53;100.00
64683;BME280;51107;47.652;19.016;2023-05-19T00:16:57;100527.78;;;12.53;100.00
64683;BME280;51107;47.652;19.016;2023-05-19T00:19:25;100528.75;;;12.52;100.00
64683;BME280;51107;47.652;19.016;2023-05-19T00:21:59;100522.19;;;12.48;100.00
64683;BME280;51107;47.652;19.016;2023-05-19T00:24:27;100520.94;;;12.52;100.00
64683;BME280;51107;47.652;19.016;2023-05-19T00:26:55;100523.69;;;12.51;100.00
64683;BME280;51107;47.652;19.016;2023-05-19T00:29:24;100526.56;;;12.48;100.00
64683;BME280;51107;47.652;19.016;2023-05-19T00:31:52;100516.97;;;12.48;100.00
64683;BME280;51107;47.652;19.016;2023-05-19T00:34:21;100519.72;;;12.47;100.00
64683;BME280;51107;47.652;19.016;2023-05-19T00:36:49;100524.94;;;12.47;100.00
64683;BME280;51107;47.652;19.016;2023-05-19T00:39:18;100511.03;;;12.46;100.00
64683;BME280;51107;47.652;19.016;2023-05-19T00:41:46;100525.09;;;12.45;100.00
64683;BME280;51107;47.652;19.016;2023-05-19T00:44:14;100514.75;;;12.44;100.00
64683;BME280;51107;47.652;19.016;2023-05-19T00:46:43;100523.44;;;12.44;100.00
64683;BME280;51107;47.652;19.016;2023-05-19T00:49:11;100519.47;;;12.40;100.00
64683;BME280;51107;47.652;19.016;2023-05-19T00:51:40;100518.09;;;12.36;100.00
64683;BME280;51107;47.652;19.016;2023-05-19T00:54:09;100515.19;;;12.39;100.00
64683;BME280;51107;47.652;19.016;2023-05-19T00:56:37;100513.84;;;12.35;100.00
64683;BME280;51107;47.652;19.016;2023-05-19T00:59:06;100511.94;;;12.37;100.00
64683;BME280;51107;47.652;19.016;2023-05-19T01:01:35;100514.38;;;12.38;100.00
64683;BME280;51107;47.652;19.016;2023-05-19T01:04:05;100512.72;;;12.37;100.00
64683;BME280;51107;47.652;19.016;2023-05-19T01:06:37;100510.41;;;12.34;100.00
64683;BME280;51107;47.652;19.016;2023-05-19T01:09:05;100500.78;;;12.35;100.00
64683;BME280;51107;47.652;19.016;2023-05-19T01:11:34;100502.44;;;12.36;100.00
64683;BME280;51107;47.652;19.016;2023-05-19T01:14:03;100516.59;;;12.33;100.00
64683;BME280;51107;47.652;19.016;2023-05-19T01:25:07;100508.88;;;12.42;100.00
64683;BME280;51107;47.652;19.016;2023-05-19T01:27:42;100510.28;;;12.36;100.00
64683;BME280;51107;47.652;19.016;2023-05-19T01:32:44;100512.72;;;12.37;100.00
64683;BME280;51107;47.652;19.016;2023-05-19T01:35:15;100509.97;;;12.39;100.00
64683;BME280;51107;47.652;19.016;2023-05-19T01:37:45;100513.19;;;12.33;100.00
64683;BME280;51107;47.652;19.016;2023-05-19T01:40:13;100501.75;;;12.34;100.00
64683;BME280;51107;47.652;19.016;2023-05-19T01:42:43;100506.97;;;12.34;100.00
64683;BME280;51107;47.652;19.016;2023-05-19T01:45:12;100513.03;;;12.34;100.00
64683;BME280;51107;47.652;19.016;2023-05-19T01:47:43;100520.31;;;12.31;100.00
64683;BME280;51107;47.652;19.016;2023-05-19T01:50:12;100521.56;;;12.27;100.00
64683;BME280;51107;47.652;19.016;2023-05-19T01:52:40;100512.94;;;12.26;100.00
64683;BME280;51107;47.652;19.016;2023-05-19T01:55:08;100522.81;;;12.22;100.00
64683;BME280;51107;47.652;19.016;2023-05-19T02:00:58;100506.50;;;12.20;100.00
64683;BME280;51107;47.652;19.016;2023-05-19T02:12:27;100498.81;;;12.09;100.00
64683;BME280;51107;47.652;19.016;2023-05-19T02:14:59;100503.25;;;11.99;100.00
64683;BME280;51107;47.652;19.016;2023-05-19T02:17:31;100502.69;;;11.95;100.00
64683;BME280;51107;47.652;19.016;2023-05-19T02:20:01;100504.75;;;11.92;100.00
64683;BME280;51107;47.652;19.016;2023-05-19T02:22:30;100503.75;;;11.93;100.00
64683;BME280;51107;47.652;19.016;2023-05-19T02:24:58;100503.66;;;11.94;100.00
64683;BME280;51107;47.652;19.016;2023-05-19T02:27:26;100499.13;;;11.96;100.00
64683;BME280;51107;47.652;19.016;2023-05-19T02:29:55;100498.97;;;11.98;100.00
64683;BME280;51107;47.652;19.016;2023-05-19T02:32:23;100498.31;;;11.96;100.00
64683;BME280;51107;47.652;19.016;2023-05-19T02:34:51;100491.97;;;11.88;100.00
64683;BME280;51107;47.652;19.016;2023-05-19T02:37:20;100497.47;;;11.85;100.00
64683;BME280;51107;47.652;19.016;2023-05-19T02:39:50;100497.47;;;11.85;100.00
64683;BME280;51107;47.652;19.016;2023-05-19T02:42:19;100496.09;;;11.81;100.00
64683;BME280;51107;47.652;19.016;2023-05-19T02:44:48;100498.56;;;11.83;100.00
64683;BME280;51107;47.652;19.016;2023-05-19T02:47:17;100492.53;;;11.82;100.00
64683;BME280;51107;47.652;19.016;2023-05-19T02:49:45;100489.66;;;11.76;100.00
64683;BME280;51107;47.652;19.016;2023-05-19T02:52:15;100505.19;;;11.77;100.00
64683;BME280;51107;47.652;19.016;2023-05-19T02:54:43;100492.53;;;11.82;100.00
64683;BME280;51107;47.652;19.016;2023-05-19T02:57:11;100501.31;;;11.81;100.00
64683;BME280;51107;47.652;19.016;2023-05-19T02:59:40;100499.41;;;11.83;100.00
64683;BME280;51107;47.652;19.016;2023-05-19T03:02:09;100505.44;;;11.84;100.00
64683;BME280;51107;47.652;19.016;2023-05-19T03:04:38;100506.00;;;11.87;100.00
64683;BME280;51107;47.652;19.016;2023-05-19T03:07:09;100514.34;;;11.91;100.00
64683;BME280;51107;47.652;19.016;2023-05-19T03:09:37;100516.97;;;11.91;100.00
64683;BME280;51107;47.652;19.016;2023-05-19T03:12:06;100509.13;;;11.91;100.00
64683;BME280;51107;47.652;19.016;2023-05-19T03:14:35;100519.56;;;11.91;100.00
64683;BME280;51107;47.652;19.016;2023-05-19T03:17:06;100509.28;;;11.89;100.00
64683;BME280;51107;47.652;19.016;2023-05-19T03:19:35;100514.63;;;11.88;100.00
64683;BME280;51107;47.652;19.016;2023-05-19T03:22:03;100510.53;;;11.85;100.00
64683;BME280;51107;47.652;19.016;2023-05-19T03:24:33;100521.25;;;11.82;100.00
64683;BME280;51107;47.652;19.016;2023-05-19T03:27:03;100518.63;;;11.82;100.00
64683;BME280;51107;47.652;19.016;2023-05-19T03:29:33;100523.16;;;11.80;100.00
64683;BME280;51107;47.652;19.016;2023-05-19T03:32:02;100516.31;;;11.79;100.00
64683;BME280;51107;47.652;19.016;2023-05-19T03:34:30;100519.75;;;11.80;100.00
64683;BME280;51107;47.652;19.016;2023-05-19T03:36:59;100517.00;;;11.81;100.00
64683;BME280;51107;47.652;19.016;2023-05-19T03:39:27;100509.16;;;11.81;100.00
64683;BME280;51107;47.652;19.016;2023-05-19T03:41:56;100510.94;;;11.81;100.00
64683;BME280;51107;47.652;19.016;2023-05-19T03:44:24;100507.25;;;11.83;100.00
64683;BME280;51107;47.652;19.016;2023-05-19T03:46:52;100501.63;;;11.78;100.00
64683;BME280;51107;47.652;19.016;2023-05-19T03:49:22;100500.38;;;11.82;100.00
64683;BME280;51107;47.652;19.016;2023-05-19T03:52:08;100497.31;;;11.87;100.00
64683;BME280;51107;47.652;19.016;2023-05-19T03:54:37;100506.38;;;11.93;100.00
64683;BME280;51107;47.652;19.016;2023-05-19T03:57:06;100503.66;;;11.94;100.00
64683;BME280;51107;47.652;19.016;2023-05-19T03:59:34;100503.25;;;11.99;100.00
64683;BME280;51107;47.652;19.016;2023-05-19T04:02:04;100493.31;;;12.02;100.00
64683;BME280;51107;47.652;19.016;2023-05-19T04:04:32;100505.97;;;12.07;100.00
64683;BME280;51107;47.652;19.016;2023-05-19T04:07:01;100503.88;;;12.11;100.00
64683;BME280;51107;47.652;19.016;2023-05-19T04:09:29;100504.28;;;12.16;100.00
64683;BME280;51107;47.652;19.016;2023-05-19T04:12:01;100516.94;;;12.20;100.00
64683;BME280;51107;47.652;19.016;2023-05-19T04:14:32;100515.94;;;12.21;100.00
64683;BME280;51107;47.652;19.016;2023-05-19T04:17:01;100524.59;;;12.32;100.00
64683;BME280;51107;47.652;19.016;2023-05-19T04:19:29;100520.44;;;12.39;100.00
64683;BME280;51107;47.652;19.016;2023-05-19T04:21:57;100525.34;;;12.42;100.00
64683;BME280;51107;47.652;19.016;2023-05-19T04:24:25;100527.12;;;12.51;100.00
64683;BME280;51107;47.652;19.016;2023-05-19T04:26:54;100520.28;;;12.40;100.00
64683;BME280;51107;47.652;19.016;2023-05-19T04:29:22;100530.22;;;12.37;100.00
64683;BME280;51107;47.652;19.016;2023-05-19T04:31:51;100532.94;;;12.45;100.00
64683;BME280;51107;47.652;19.016;2023-05-19T04:34:19;100526.75;;;12.36;100.00
64683;BME280;51107;47.652;19.016;2023-05-19T04:36:48;100528.06;;;12.50;100.00
64683;BME280;51107;47.652;19.016;2023-05-19T04:39:20;100529.72;;;12.51;100.00
64683;BME280;51107;47.652;19.016;2023-05-19T04:41:49;100536.16;;;12.57;100.00
64683;BME280;51107;47.652;19.016;2023-05-19T04:44:17;100539.59;;;12.57;100.00
64683;BME280;51107;47.652;19.016;2023-05-19T04:46:46;100540.09;;;12.71;100.00
64683;BME280;51107;47.652;19.016;2023-05-19T04:49:15;100549.75;;;12.88;100.00
64683;BME280;51107;47.652;19.016;2023-05-19T04:51:43;100546.56;;;12.95;100.00
64683;BME280;51107;47.652;19.016;2023-05-19T04:54:13;100547.09;;;12.98;100.00
64683;BME280;51107;47.652;19.016;2023-05-19T04:56:42;100547.78;;;13.00;100.00
64683;BME280;51107;47.652;19.016;2023-05-19T04:59:11;100548.06;;;12.97;100.00
64683;BME280;51107;47.652;19.016;2023-05-19T05:01:39;100543.44;;;13.09;100.00
64683;BME280;51107;47.652;19.016;2023-05-19T05:04:11;100538.87;;;13.11;100.00
64683;BME280;51107;47.652;19.016;2023-05-19T05:06:40;100551.38;;;13.17;100.00
64683;BME280;51107;47.652;19.016;2023-05-19T05:09:15;100550.84;;;13.32;100.00
64683;BME280;51107;47.652;19.016;2023-05-19T05:11:44;100546.22;;;13.25;100.00
64683;BME280;51107;47.652;19.016;2023-05-19T05:14:12;100549.50;;;13.28;100.00
64683;BME280;51107;47.652;19.016;2023-05-19T05:16:41;100560.72;;;13.20;100.00
64683;BME280;51107;47.652;19.016;2023-05-19T05:19:11;100557.34;;;13.28;100.00
64683;BME280;51107;47.652;19.016;2023-05-19T05:21:40;100558.81;;;13.40;100.00
64683;BME280;51107;47.652;19.016;2023-05-19T05:24:09;100561.34;;;13.50;100.00
64683;BME280;51107;47.652;19.016;2023-05-19T05:26:40;100566.66;;;13.58;100.00
64683;BME280;51107;47.652;19.016;2023-05-19T05:29:08;100559.56;;;13.68;100.00
64683;BME280;51107;47.652;19.016;2023-05-19T05:31:37;100568.81;;;13.81;100.00
64683;BME280;51107;47.652;19.016;2023-05-19T05:34:06;100567.94;;;13.72;100.00
64683;BME280;51107;47.652;19.016;2023-05-19T05:36:34;100566.34;;;13.79;100.00
64683;BME280;51107;47.652;19.016;2023-05-19T05:39:02;100574.78;;;13.91;100.00
64683;BME280;51107;47.652;19.016;2023-05-19T05:41:32;100579.91;;;14.01;100.00
64683;BME280;51107;47.652;19.016;2023-05-19T05:44:04;100577.75;;;13.96;100.00
64683;BME280;51107;47.652;19.016;2023-05-19T05:46:33;100577.97;;;14.03;100.00
64683;BME280;51107;47.652;19.016;2023-05-19T05:49:02;100580.38;;;14.22;100.00
64683;BME280;51107;47.652;19.016;2023-05-19T05:51:30;100580.53;;;14.21;100.00
64683;BME280;51107;47.652;19.016;2023-05-19T05:54:00;100578.59;;;14.23;100.00
64683;BME280;51107;47.652;19.016;2023-05-19T05:56:30;100575.66;;;14.26;100.00
64683;BME280;51107;47.652;19.016;2023-05-19T05:59:01;100568.78;;;14.25;100.00
64683;BME280;51107;47.652;19.016;2023-05-19T06:01:29;100577.44;;;14.25;100.00
64683;BME280;51107;47.652;19.016;2023-05-19T06:04:00;100571.91;;;14.55;100.00
64683;BME280;51107;47.652;19.016;2023-05-19T06:06:29;100572.06;;;14.53;100.00
64683;BME280;51107;47.652;19.016;2023-05-19T06:08:59;100570.97;;;14.38;100.00
64683;BME280;51107;47.652;19.016;2023-05-19T06:11:27;100573.38;;;14.57;100.00
64683;BME280;51107;47.652;19.016;2023-05-19T06:13:56;100576.88;;;14.66;100.00
64683;BME280;51107;47.652;19.016;2023-05-19T06:16:29;100576.91;;;14.74;100.00
64683;BME280;51107;47.652;19.016;2023-05-19T06:18:57;100576.13;;;14.82;100.00
64683;BME280;51107;47.652;19.016;2023-05-19T06:21:26;100573.19;;;14.85;100.00
64683;BME280;51107;47.652;19.016;2023-05-19T06:23:54;100582.56;;;14.96;100.00
64683;BME280;51107;47.652;19.016;2023-05-19T06:26:22;100583.59;;;15.11;100.00
64683;BME280;51107;47.652;19.016;2023-05-19T06:28:50;100585.09;;;15.22;100.00
64683;BME280;51107;47.652;19.016;2023-05-19T06:31:20;100584.47;;;15.45;100.00
64683;BME280;51107;47.652;19.016;2023-05-19T06:33:49;100591.88;;;15.41;100.00
64683;BME280;51107;47.652;19.016;2023-05-19T06:36:18;100596.97;;;15.68;100.00
64683;BME280;51107;47.652;19.016;2023-05-19T06:38:46;100593.84;;;15.72;100.00
64683;BME280;51107;47.652;19.016;2023-05-19T06:41:15;100603.19;;;15.67;100.00
64683;BME280;51107;47.652;19.016;2023-05-19T06:43:46;100603.88;;;15.85;100.00
64683;BME280;51107;47.652;19.016;2023-05-19T06:46:15;100598.94;;;16.07;100.00
64683;BME280;51107;47.652;19.016;2023-05-19T06:48:44;100602.38;;;16.07;100.00
64683;BME280;51107;47.652;19.016;2023-05-19T06:51:13;100593.69;;;16.07;100.00
64683;BME280;51107;47.652;19.016;2023-05-19T06:53:44;100599.25;;;16.28;100.00
64683;BME280;51107;47.652;19.016;2023-05-19T06:56:12;100593.78;;;16.46;100.00
64683;BME280;51107;47.652;19.016;2023-05-19T06:58:42;100602.47;;;16.47;100.00
64683;BME280;51107;47.652;19.016;2023-05-19T07:01:11;100610.13;;;16.73;100.00
64683;BME280;51107;47.652;19.016;2023-05-19T07:03:39;100612.41;;;16.85;100.00
64683;BME280;51107;47.652;19.016;2023-05-19T07:06:08;100598.31;;;17.09;100.00
64683;BME280;51107;47.652;19.016;2023-05-19T07:08:37;100607.72;;;17.03;97.56
64683;BME280;51107;47.652;19.016;2023-05-19T07:11:06;100611.28;;;17.10;95.49
64683;BME280;51107;47.652;19.016;2023-05-19T07:13:34;100614.50;;;16.97;91.36
64683;BME280;51107;47.652;19.016;2023-05-19T07:16:04;100621.31;;;16.75;91.00
64683;BME280;51107;47.652;19.016;2023-05-19T07:18:33;100613.03;;;16.87;96.64
64683;BME280;51107;47.652;19.016;2023-05-19T07:21:01;100616.47;;;16.87;96.71
64683;BME280;51107;47.652;19.016;2023-05-19T07:23:29;100618.34;;;16.70;98.10
64683;BME280;51107;47.652;19.016;2023-05-19T07:25:57;100616.13;;;16.42;98.22
64683;BME280;51107;47.652;19.016;2023-05-19T07:28:26;100612.53;;;16.35;96.10
64683;BME280;51107;47.652;19.016;2023-05-19T07:30:54;100609.75;;;16.28;95.39
64683;BME280;51107;47.652;19.016;2023-05-19T07:33:23;100610.91;;;16.34;94.75
64683;BME280;51107;47.652;19.016;2023-05-19T07:35:52;100607.97;;;16.21;95.73
64683;BME280;51107;47.652;19.016;2023-05-19T07:38:20;100611.88;;;16.33;100.00
64683;BME280;51107;47.652;19.016;2023-05-19T07:40:48;100606.13;;;16.46;100.00
64683;BME280;51107;47.652;19.016;2023-05-19T07:43:16;100604.06;;;16.64;100.00
64683;BME280;51107;47.652;19.016;2023-05-19T07:45:45;100605.34;;;16.77;95.66
64683;BME280;51107;47.652;19.016;2023-05-19T07:48:13;100604.50;;;16.93;97.98
64683;BME280;51107;47.652;19.016;2023-05-19T07:50:42;100612.34;;;17.01;91.76
64683;BME280;51107;47.652;19.016;2023-05-19T07:53:10;100601.25;;;17.14;96.70
64683;BME280;51107;47.652;19.016;2023-05-19T07:55:38;100611.44;;;17.17;96.34
64683;BME280;51107;47.652;19.016;2023-05-19T07:58:06;100598.47;;;17.39;94.25
64683;BME280;51107;47.652;19.016;2023-05-19T08:00:35;100598.66;;;17.37;90.02
64683;BME280;51107;47.652;19.016;2023-05-19T08:03:04;100604.91;;;17.36;94.34
64683;BME280;51107;47.652;19.016;2023-05-19T08:05:33;100602.69;;;17.48;92.54
64683;BME280;51107;47.652;19.016;2023-05-19T08:08:02;100603.25;;;17.58;92.45
64683;BME280;51107;47.652;19.016;2023-05-19T08:10:30;100593.53;;;17.59;89.62
64683;BME280;51107;47.652;19.016;2023-05-19T08:12:59;100600.56;;;17.66;90.43
64683;BME280;51107;47.652;19.016;2023-05-19T08:15:27;100590.16;;;17.96;91.38
64683;BME280;51107;47.652;19.016;2023-05-19T08:17:56;100590.78;;;18.13;89.83
64683;BME280;51107;47.652;19.016;2023-05-19T08:20:24;100589.44;;;18.17;84.31
64683;BME280;51107;47.652;19.016;2023-05-19T08:22:52;100588.28;;;18.35;82.57
64683;BME280;51107;47.652;19.016;2023-05-19T08:25:21;100587.25;;;18.51;85.63
64683;BME280;51107;47.652;19.016;2023-05-19T08:27:49;100584.06;;;18.71;80.55
64683;BME280;51107;47.652;19.016;2023-05-19T08:30:17;100588.09;;;18.66;79.88
64683;BME280;51107;47.652;19.016;2023-05-19T08:32:46;100585.66;;;19.01;78.99
64683;BME280;51107;47.652;19.016;2023-05-19T08:35:15;100580.44;;;19.23;77.88
64683;BME280;51107;47.652;19.016;2023-05-19T08:37:43;100582.31;;;19.73;78.17
64683;BME280;51107;47.652;19.016;2023-05-19T08:40:16;100588.38;;;19.73;79.83
64683;BME280;51107;47.652;19.016;2023-05-19T08:42:45;100575.31;;;19.87;82.63
64683;BME280;51107;47.652;19.016;2023-05-19T08:45:14;100587.81;;;19.78;76.50
64683;BME280;51107;47.652;19.016;2023-05-19T08:47:44;100579.66;;;19.51;74.95
64683;BME280;51107;47.652;19.016;2023-05-19T08:50:23;100578.06;;;18.92;76.64
64683;BME280;51107;47.652;19.016;2023-05-19T08:55:49;100591.62;;;18.29;77.95
64683;BME280;51107;47.652;19.016;2023-05-19T08:58:22;100586.91;;;18.24;80.40
64683;BME280;51107;47.652;19.016;2023-05-19T09:00:50;100589.97;;;18.43;82.13
64683;BME280;51107;47.652;19.016;2023-05-19T09:03:20;100584.62;;;18.21;79.02
64683;BME280;51107;47.652;19.016;2023-05-19T09:05:51;100582.53;;;18.31;82.41
64683;BME280;51107;47.652;19.016;2023-05-19T09:08:19;100589.44;;;18.32;88.22
64683;BME280;51107;47.652;19.016;2023-05-19T09:10:47;100586.34;;;18.29;80.56
64683;BME280;51107;47.652;19.016;2023-05-19T09:13:16;100589.81;;;18.29;84.37
64683;BME280;51107;47.652;19.016;2023-05-19T09:15:44;100578.69;;;18.19;83.50
64683;BME280;51107;47.652;19.016;2023-05-19T09:18:13;100581.44;;;18.41;86.93
64683;BME280;51107;47.652;19.016;2023-05-19T09:20:43;100576.59;;;18.89;93.67
64683;BME280;51107;47.652;19.016;2023-05-19T09:23:13;100588.84;;;19.77;85.77
64683;BME280;51107;47.652;19.016;2023-05-19T09:25:52;100582.16;;;20.37;78.55
64683;BME280;51107;47.652;19.016;2023-05-19T09:33:36;100577.25;;;21.58;80.41
64683;BME280;51107;47.652;19.016;2023-05-19T09:36:05;100578.47;;;21.82;73.89
64683;BME280;51107;47.652;19.016;2023-05-19T09:38:36;100577.22;;;21.31;74.59
64683;BME280;51107;47.652;19.016;2023-05-19T09:41:06;100578.66;;;21.54;75.77
64683;BME280;51107;47.652;19.016;2023-05-19T09:43:35;100582.97;;;21.68;72.58
64683;BME280;51107;47.652;19.016;2023-05-19T09:48:34;100579.06;;;21.98;69.38
64683;BME280;51107;47.652;19.016;2023-05-19T09:51:06;100582.91;;;21.42;75.07
64683;BME280;51107;47.652;19.016;2023-05-19T09:53:35;100575.16;;;21.20;72.70
64683;BME280;51107;47.652;19.016;2023-05-19T09:56:03;100574.59;;;21.65;72.19
64683;BME280;51107;47.652;19.016;2023-05-19T09:58:33;100568.50;;;21.64;74.92
64683;BME280;51107;47.652;19.016;2023-05-19T10:01:04;100576.56;;;21.29;74.61
64683;BME280;51107;47.652;19.016;2023-05-19T10:03:33;100568.78;;;20.94;74.23
64683;BME280;51107;47.652;19.016;2023-05-19T10:06:05;100577.78;;;21.13;76.42
64683;BME280;51107;47.652;19.016;2023-05-19T10:08:36;100568.00;;;21.20;77.87
64683;BME280;51107;47.652;19.016;2023-05-19T10:11:07;100560.97;;;21.61;77.11
64683;BME280;51107;47.652;19.016;2023-05-19T10:13:38;100563.78;;;21.73;73.09
64683;BME280;51107;47.652;19.016;2023-05-19T10:16:07;100555.81;;;21.93;77.33
64683;BME280;51107;47.652;19.016;2023-05-19T10:18:36;100557.62;;;21.99;66.02
64683;BME280;51107;47.652;19.016;2023-05-19T10:21:07;100543.78;;;21.64;75.64
64683;BME280;51107;47.652;19.016;2023-05-19T10:23:37;100545.22;;;21.66;68.85
64683;BME280;51107;47.652;19.016;2023-05-19T10:26:05;100545.03;;;21.54;68.92
64683;BME280;51107;47.652;19.016;2023-05-19T10:28:37;100547.69;;;21.61;70.77
64683;BME280;51107;47.652;19.016;2023-05-19T10:31:09;100546.41;;;21.24;69.76
64683;BME280;51107;47.652;19.016;2023-05-19T10:36:36;100537.84;;;20.53;73.63
64683;BME280;51107;47.652;19.016;2023-05-19T10:39:14;100532.88;;;20.36;71.41
64683;BME280;51107;47.652;19.016;2023-05-19T10:41:55;100540.34;;;20.19;73.70
64683;BME280;51107;47.652;19.016;2023-05-19T10:47:25;100541.09;;;20.13;78.01
64683;BME280;51107;47.652;19.016;2023-05-19T10:49:54;100529.44;;;20.01;77.00
64683;BME280;51107;47.652;19.016;2023-05-19T10:52:23;100526.88;;;19.86;72.68
64683;BME280;51107;47.652;19.016;2023-05-19T10:54:56;100522.97;;;20.10;76.88
64683;BME280;51107;47.652;19.016;2023-05-19T10:57:25;100525.47;;;20.67;76.68
64683;BME280;51107;47.652;19.016;2023-05-19T10:59:55;100517.78;;;20.72;76.72
64683;BME280;51107;47.652;19.016;2023-05-19T11:02:40;100510.28;;;20.89;68.92
64683;BME280;51107;47.652;19.016;2023-05-19T11:05:15;100514.56;;;20.90;77.16
64683;BME280;51107;47.652;19.016;2023-05-19T11:07:55;100508.25;;;21.04;73.34
64683;BME280;51107;47.652;19.016;2023-05-19T11:10:24;100512.97;;;21.09;72.71
64683;BME280;51107;47.652;19.016;2023-05-19T11:12:55;100524.41;;;21.23;74.18
64683;BME280;51107;47.652;19.016;2023-05-19T11:15:25;100517.47;;;21.22;66.87
64683;BME280;51107;47.652;19.016;2023-05-19T11:18:00;100517.41;;;20.89;68.64
64683;BME280;51107;47.652;19.016;2023-05-19T11:20:29;100513.72;;;20.76;67.18
64683;BME280;51107;47.652;19.016;2023-05-19T11:23:07;100511.06;;;20.69;70.72
64683;BME280;51107;47.652;19.016;2023-05-19T11:25:45;100505.16;;;20.81;67.77
64683;BME280;51107;47.652;19.016;2023-05-19T11:28:18;100503.34;;;20.88;76.38
64683;BME280;51107;47.652;19.016;2023-05-19T11:30:47;100508.84;;;20.86;68.80
64683;BME280;51107;47.652;19.016;2023-05-19T11:33:19;100512.31;;;20.87;77.25
64683;BME280;51107;47.652;19.016;2023-05-19T11:35:49;100510.31;;;20.96;68.88
64683;BME280;51107;47.652;19.016;2023-05-19T11:38:18;100501.94;;;20.92;74.18
64683;BME280;51107;47.652;19.016;2023-05-19T11:40:47;100501.22;;;20.63;63.63
64683;BME280;51107;47.652;19.016;2023-05-19T11:43:17;100502.03;;;20.64;68.16
64683;BME280;51107;47.652;19.016;2023-05-19T11:45:45;100502.28;;;20.76;68.28
64683;BME280;51107;47.652;19.016;2023-05-19T11:48:14;100505.16;;;20.81;66.70
64683;BME280;51107;47.652;19.016;2023-05-19T11:50:43;100502.31;;;20.82;63.25
64683;BME280;51107;47.652;19.016;2023-05-19T11:53:11;100496.44;;;20.87;63.05
64683;BME280;51107;47.652;19.016;2023-05-19T11:55:45;100502.31;;;20.82;65.26
64683;BME280;51107;47.652;19.016;2023-05-19T11:58:14;100501.31;;;20.83;68.64
64683;BME280;51107;47.652;19.016;2023-05-19T12:00:43;100501.13;;;20.92;63.66
64683;BME280;51107;47.652;19.016;2023-05-19T12:03:13;100498.28;;;20.93;63.93
64683;BME280;51107;47.652;19.016;2023-05-19T12:05:43;100500.75;;;21.08;69.71
64683;BME280;51107;47.652;19.016;2023-05-19T12:08:15;100498.09;;;21.08;70.67
64683;BME280;51107;47.652;19.016;2023-05-19T12:10:48;100502.78;;;20.99;67.99
64683;BME280;51107;47.652;19.016;2023-05-19T12:13:18;100500.72;;;20.95;67.78
64683;BME280;51107;47.652;19.016;2023-05-19T12:15:49;100502.56;;;20.94;67.76
64683;BME280;51107;47.652;19.016;2023-05-19T12:18:19;100497.06;;;20.96;65.50
64683;BME280;51107;47.652;19.016;2023-05-19T12:20:48;100495.41;;;20.81;67.70
64683;BME280;51107;47.652;19.016;2023-05-19T12:23:16;100502.66;;;20.66;64.14
64683;BME280;51107;47.652;19.016;2023-05-19T12:25:45;100496.12;;;20.62;62.74
64683;BME280;51107;47.652;19.016;2023-05-19T12:28:15;100495.47;;;20.46;67.72
64683;BME280;51107;47.652;19.016;2023-05-19T12:30:47;100489.41;;;20.66;67.19
64683;BME280;51107;47.652;19.016;2023-05-19T12:33:17;100487.03;;;20.78;69.70
64683;BME280;51107;47.652;19.016;2023-05-19T12:35:47;100487.03;;;20.71;69.08
64683;BME280;51107;47.652;19.016;2023-05-19T12:38:18;100480.28;;;20.68;72.38
64683;BME280;51107;47.652;19.016;2023-05-19T12:40:46;100482.31;;;20.66;65.18
64683;BME280;51107;47.652;19.016;2023-05-19T12:43:21;100471.47;;;20.54;68.00
64683;BME280;51107;47.652;19.016;2023-05-19T12:45:50;100465.31;;;20.41;67.32
64683;BME280;51107;47.652;19.016;2023-05-19T12:48:22;100464.66;;;20.87;62.78
64683;BME280;51107;47.652;19.016;2023-05-19T12:50:52;100449.34;;;20.76;65.61
64683;BME280;51107;47.652;19.016;2023-05-19T12:53:25;100464.59;;;20.67;70.47
64683;BME280;51107;47.652;19.016;2023-05-19T12:55:54;100449.09;;;20.57;70.05
64683;BME280;51107;47.652;19.016;2023-05-19T12:58:23;100450.28;;;20.48;65.55
64683;BME280;51107;47.652;19.016;2023-05-19T13:00:57;100451.47;;;20.45;64.96
64683;BME280;51107;47.652;19.016;2023-05-19T13:03:27;100450.63;;;20.31;64.27
64683;BME280;51107;47.652;19.016;2023-05-19T13:05:55;100449.41;;;20.34;66.68
64683;BME280;51107;47.652;19.016;2023-05-19T13:08:23;100438.66;;;20.42;64.00
64683;BME280;51107;47.652;19.016;2023-05-19T13:10:52;100441.09;;;20.44;67.50
64683;BME280;51107;47.652;19.016;2023-05-19T13:13:20;100435.62;;;20.39;64.19
64683;BME280;51107;47.652;19.016;2023-05-19T13:15:48;100442.75;;;20.45;68.55
64683;BME280;51107;47.652;19.016;2023-05-19T13:18:17;100440.09;;;20.45;65.67
64683;BME280;51107;47.652;19.016;2023-05-19T13:20:46;100439.09;;;20.46;68.85
64683;BME280;51107;47.652;19.016;2023-05-19T13:23:17;100429.38;;;20.66;68.50
64683;BME280;51107;47.652;19.016;2023-05-19T13:25:46;100443.22;;;20.68;68.41
64683;BME280;51107;47.652;19.016;2023-05-19T13:28:15;100435.31;;;20.89;66.79